MNZ weather

Manassas Regional Airport/Harry P. Davis Field
Manassas, Virginia, United States

Public forecast

Using degrees Fahrenheit for public forecast. Weather courtesy of forecast.io.

Current aviation weather report (METAR) for Manassas Regional Airport/Harry P. Davis Field

Retrieved 2020/07/08 08:56 UTC (56 minutes ago):

KHEF 080856Z AUTO 00000KT 10SM CLR 22/22 A2999 RMK AO2 SLP159 T02220217 55004

Closest aviation forecast (TAF) to Manassas Regional Airport/Harry P. Davis Field

Closest forecast is Washington Dulles International Airport, 13.7 nm (25.3 km) NNE. Retrieved 2020/07/08 06:34 UTC (3 hours ago):

TAF KIAD 080532Z 0806/0912 16004KT P6SM SCT200 FM080900 VRB03KT 5SM BR SCT015 SCT200 FM081300 15005KT P6SM SCT025 SCT200 FM081800 10008KT P6SM SCT050 SCT130 FM090100 VRB03KT P6SM SCT050 SCT130 FM090900 VRB03KT 5SM BR BKN015